Terminal Aerodrome Forecast
Issued by NWS

Home | Current Version | Previous Version | Text Only | Print | Product List | Glossary On
Versions: 1 2 3 4 5 6 7 8 9 10 11 12 13 14
526
FTUS45 KTFX 111003 AAA
TAFHVR
TAF AMD
KHVR 111003Z 1110/1206 05006KT 6SM BR VCFG SCT050 BKN090
      TEMPO 1112/1114 25005KT 2SM BR BKN030
     FM111800 30010KT P6SM SCT070 BKN100
     FM120000 35011KT P6SM SCT050 BKN080
     FM120400 08006KT P6SM VCSH SCT020 BKN040=

USA.gov is the U.S. government's official web portal to all federal, state and local government web resources and services.